Time;durP1;ratioP1;P1;durP2;ratioP2;P2;SDS_P1;SDS_P2;PMS_P1;PMS_P2;Temp;Humidity;BMP_temperature;BMP_pressure;BME280_temperature;BME280_humidity;BME280_pressure;Samples;Min_cycle;Max_cycle;Signal;HPM_P1;HPM_P2
2021/08/16 00:00:09;;;;;;;6.18;4.70;;;25.60;48.10;;;;;;4198848;28;20061;-60
2021/08/16 00:02:11;;;;;;;6.15;4.68;;;25.60;48.10;;;;;;4199347;28;20053;-60
2021/08/16 00:04:13;;;;;;;8.88;5.07;;;25.50;48.10;;;;;;4213441;28;20083;-60
2021/08/16 00:06:17;;;;;;;6.47;4.75;;;25.60;48.10;;;;;;4216269;28;20055;-53
2021/08/16 00:08:19;;;;;;;12.65;5.72;;;25.50;48.20;;;;;;4216329;28;20055;-54
2021/08/16 00:10:22;;;;;;;8.18;5.45;;;25.60;48.20;;;;;;4216160;28;20192;-54
2021/08/16 00:12:24;;;;;;;11.70;5.05;;;25.60;48.20;;;;;;4216357;28;20048;-56
2021/08/16 00:14:26;;;;;;;8.25;4.63;;;25.50;48.30;;;;;;4216143;28;20059;-53
2021/08/16 00:16:29;;;;;;;6.95;4.72;;;25.50;48.30;;;;;;4216243;28;20044;-54
2021/08/16 00:18:33;;;;;;;9.13;5.63;;;25.60;48.30;;;;;;4216095;28;20047;-55
2021/08/16 00:20:35;;;;;;;6.93;5.07;;;25.60;48.20;;;;;;4216104;28;20305;-55
2021/08/16 00:22:37;;;;;;;7.97;5.32;;;25.50;48.30;;;;;;4216185;28;20080;-54
2021/08/16 00:24:39;;;;;;;7.43;4.43;;;25.50;48.30;;;;;;4216164;28;20052;-59
2021/08/16 00:26:41;;;;;;;10.50;5.57;;;25.60;48.30;;;;;;4216122;28;20052;-58
2021/08/16 00:28:43;;;;;;;10.10;5.95;;;25.50;48.30;;;;;;4216040;28;20055;-58
2021/08/16 00:30:45;;;;;;;10.05;6.25;;;25.50;48.40;;;;;;4215973;28;20048;-58
2021/08/16 00:32:49;;;;;;;8.25;5.80;;;25.50;48.40;;;;;;4198513;28;20041;-58
2021/08/16 00:34:52;;;;;;;7.63;6.25;;;25.50;48.40;;;;;;4216072;28;20063;-58
2021/08/16 00:36:54;;;;;;;9.18;5.72;;;25.50;48.40;;;;;;4215987;28;20044;-59
2021/08/16 00:38:56;;;;;;;10.77;5.70;;;25.50;48.40;;;;;;4215908;28;20044;-59
2021/08/16 00:40:58;;;;;;;9.07;5.75;;;25.50;48.40;;;;;;4216031;28;20048;-59
2021/08/16 00:43:00;;;;;;;10.68;6.28;;;25.50;48.40;;;;;;4216022;28;20386;-58
2021/08/16 00:45:03;;;;;;;11.63;7.97;;;25.50;48.40;;;;;;4215891;28;20059;-59
2021/08/16 00:47:05;;;;;;;7.33;5.80;;;25.50;48.40;;;;;;4216065;28;20049;-58
2021/08/16 00:49:08;;;;;;;7.07;5.25;;;25.50;48.40;;;;;;4213987;28;20084;-60
2021/08/16 00:51:10;;;;;;;9.10;5.43;;;25.50;48.40;;;;;;4212193;28;20044;-60
2021/08/16 00:53:15;;;;;;;7.13;4.95;;;25.50;48.40;;;;;;4216764;28;20052;-60
2021/08/16 00:55:18;;;;;;;10.10;6.60;;;25.50;48.40;;;;;;4216106;28;20055;-60
2021/08/16 00:57:22;;;;;;;8.50;5.65;;;25.50;48.40;;;;;;4209996;28;20056;-60
2021/08/16 00:59:24;;;;;;;9.55;4.90;;;25.40;48.40;;;;;;4202628;28;20044;-60
2021/08/16 01:01:27;;;;;;;9.07;5.78;;;25.40;48.40;;;;;;4201275;28;20045;-60
2021/08/16 01:03:29;;;;;;;7.25;5.38;;;25.40;48.40;;;;;;4213012;28;20052;-60
2021/08/16 01:05:31;;;;;;;9.95;5.70;;;25.40;48.40;;;;;;4216054;28;20068;-60
2021/08/16 01:07:34;;;;;;;11.60;5.43;;;25.40;48.40;;;;;;4229973;28;20040;-60
2021/08/16 01:09:36;;;;;;;8.77;6.45;;;25.50;48.40;;;;;;4216516;28;20041;-60
2021/08/16 01:11:38;;;;;;;9.23;5.45;;;25.40;48.40;;;;;;4216067;28;20104;-60
2021/08/16 01:13:42;;;;;;;7.50;6.10;;;25.40;48.40;;;;;;4214465;28;20053;-60
2021/08/16 01:16:15;;;;;;;8.77;5.32;;;25.50;48.40;;;;;;4229149;28;20044;-60
2021/08/16 01:18:17;;;;;;;8.82;5.82;;;25.50;48.30;;;;;;4189254;28;20049;-60
2021/08/16 01:20:19;;;;;;;6.55;5.32;;;25.40;48.30;;;;;;4213846;28;20044;-60
2021/08/16 01:22:21;;;;;;;8.98;5.20;;;25.40;48.40;;;;;;4215756;28;20059;-60
2021/08/16 01:24:23;;;;;;;7.50;5.72;;;25.40;48.40;;;;;;4216178;28;20052;-61
2021/08/16 01:26:26;;;;;;;9.40;5.65;;;25.40;48.50;;;;;;4215305;28;20075;-61
2021/08/16 01:28:28;;;;;;;9.35;5.93;;;25.40;48.50;;;;;;4217841;28;20071;-61
2021/08/16 01:30:30;;;;;;;7.25;5.70;;;25.40;48.60;;;;;;4227154;28;20059;-61
2021/08/16 01:32:32;;;;;;;9.05;6.35;;;25.40;48.60;;;;;;4201378;28;20052;-61
2021/08/16 01:34:35;;;;;;;10.38;7.28;;;25.40;48.70;;;;;;4214071;28;20829;-62
2021/08/16 01:36:37;;;;;;;9.27;5.80;;;25.40;48.70;;;;;;4215547;28;20051;-61
2021/08/16 01:38:42;;;;;;;7.30;5.60;;;25.40;48.80;;;;;;4217072;28;20055;-61
2021/08/16 01:40:44;;;;;;;9.27;6.07;;;25.40;48.80;;;;;;4215320;28;20058;-61
2021/08/16 01:42:46;;;;;;;7.00;5.47;;;25.40;48.80;;;;;;4211260;28;20509;-61
2021/08/16 01:44:48;;;;;;;11.15;6.00;;;25.40;48.80;;;;;;4220819;28;20056;-61
2021/08/16 01:46:51;;;;;;;7.97;5.32;;;25.30;48.90;;;;;;4217234;28;20060;-61
2021/08/16 01:48:53;;;;;;;12.60;6.05;;;25.30;48.90;;;;;;4205714;28;20060;-61
2021/08/16 01:50:55;;;;;;;7.45;5.45;;;25.30;48.90;;;;;;4208009;28;20051;-61
2021/08/16 01:52:58;;;;;;;9.70;5.53;;;25.30;48.90;;;;;;4222489;28;20044;-61
2021/08/16 01:55:00;;;;;;;8.15;4.82;;;25.30;48.90;;;;;;4215669;28;20055;-61
2021/08/16 01:57:02;;;;;;;8.70;5.35;;;25.40;48.90;;;;;;4217043;28;20051;-61
2021/08/16 01:59:05;;;;;;;7.30;4.88;;;25.30;48.90;;;;;;4213767;28;20064;-61
2021/08/16 02:01:07;;;;;;;8.10;5.05;;;25.40;48.90;;;;;;4215770;28;20052;-61
2021/08/16 02:03:09;;;;;;;7.65;5.22;;;25.30;48.90;;;;;;4213876;28;20052;-60
2021/08/16 02:05:12;;;;;;;10.88;5.63;;;25.30;48.90;;;;;;4213710;28;20059;-61
2021/08/16 02:07:15;;;;;;;6.18;5.35;;;25.30;48.90;;;;;;4216154;28;20044;-61
2021/08/16 02:09:17;;;;;;;7.38;5.38;;;25.30;48.90;;;;;;4216246;28;20103;-60
2021/08/16 02:11:19;;;;;;;6.47;5.30;;;25.30;48.90;;;;;;4212577;28;20044;-60
2021/08/16 02:13:21;;;;;;;13.55;5.68;;;25.30;48.90;;;;;;4215095;28;20040;-60
2021/08/16 02:15:23;;;;;;;13.13;5.22;;;25.30;49.00;;;;;;4218104;28;20044;-59
2021/08/16 02:17:26;;;;;;;7.90;5.72;;;25.30;49.00;;;;;;4221805;28;20059;-61
2021/08/16 02:19:28;;;;;;;8.07;5.60;;;25.30;48.90;;;;;;4214591;28;20045;-61
2021/08/16 02:21:30;;;;;;;12.07;5.22;;;25.20;48.90;;;;;;4216359;28;20066;-62
2021/08/16 02:23:32;;;;;;;9.60;5.50;;;25.30;48.80;;;;;;4230251;28;20044;-62
2021/08/16 02:25:34;;;;;;;7.15;4.90;;;25.30;48.80;;;;;;4213647;28;20108;-61
2021/08/16 02:27:43;;;;;;;7.43;4.80;;;25.30;48.80;;;;;;4212338;28;20113;-61
2021/08/16 02:29:45;;;;;;;8.98;5.00;;;25.20;48.80;;;;;;4214615;28;20091;-61
2021/08/16 02:31:47;;;;;;;6.68;4.75;;;25.20;48.80;;;;;;4215636;28;20122;-61
2021/08/16 02:33:50;;;;;;;7.25;5.13;;;25.20;48.70;;;;;;4214626;28;20052;-61
2021/08/16 02:35:52;;;;;;;11.27;5.47;;;25.20;48.70;;;;;;4213240;28;20040;-61
2021/08/16 02:37:54;;;;;;;6.70;4.85;;;25.20;48.70;;;;;;4227117;28;20044;-61
2021/08/16 02:39:56;;;;;;;7.25;5.18;;;25.20;48.70;;;;;;4221134;28;20043;-61
2021/08/16 02:41:58;;;;;;;10.15;5.30;;;25.20;48.70;;;;;;4214561;28;20041;-61
2021/08/16 02:44:01;;;;;;;7.40;5.03;;;25.20;48.70;;;;;;4212801;28;20481;-59
2021/08/16 02:46:03;;;;;;;9.80;5.47;;;25.20;48.70;;;;;;4217627;28;20417;-59
2021/08/16 02:48:05;;;;;;;11.23;5.00;;;25.20;48.70;;;;;;4217719;28;20052;-59
2021/08/16 02:50:07;;;;;;;7.78;5.55;;;25.20;48.60;;;;;;4217415;28;20054;-59
2021/08/16 02:52:09;;;;;;;6.63;4.82;;;25.20;48.70;;;;;;4217512;28;20041;-59
2021/08/16 02:54:11;;;;;;;11.68;5.10;;;25.20;48.60;;;;;;4217541;28;20040;-59
2021/08/16 02:56:13;;;;;;;8.60;5.65;;;25.20;48.60;;;;;;4217362;28;20048;-59
2021/08/16 02:58:15;;;;;;;8.38;4.97;;;25.20;48.80;;;;;;4217434;28;20098;-58
2021/08/16 03:00:17;;;;;;;6.43;5.10;;;25.20;48.80;;;;;;4217187;28;20048;-59
2021/08/16 03:02:19;;;;;;;6.82;4.93;;;25.20;48.70;;;;;;4217435;28;20055;-59
2021/08/16 03:04:22;;;;;;;11.50;5.38;;;25.20;48.70;;;;;;4217309;28;20048;-59
2021/08/16 03:06:24;;;;;;;11.50;5.38;;;25.20;48.60;;;;;;4217403;28;20108;-60
2021/08/16 03:08:26;;;;;;;9.60;5.25;;;25.20;48.60;;;;;;4217244;28;20056;-59
2021/08/16 03:10:28;;;;;;;12.13;5.00;;;25.20;48.50;;;;;;4217126;28;20076;-59
2021/08/16 03:12:30;;;;;;;8.65;5.28;;;25.20;48.50;;;;;;4217171;28;20045;-59
2021/08/16 03:14:32;;;;;;;8.23;5.72;;;25.20;48.50;;;;;;4216502;28;20044;-59
2021/08/16 03:16:34;;;;;;;7.50;4.85;;;25.20;48.50;;;;;;4217201;28;20385;-58
2021/08/16 03:18:37;;;;;;;8.00;5.35;;;25.20;48.50;;;;;;4217043;28;20067;-58
2021/08/16 03:20:40;;;;;;;10.35;5.55;;;25.20;48.50;;;;;;4217069;28;20055;-58
2021/08/16 03:22:42;;;;;;;10.43;5.53;;;25.20;48.50;;;;;;4199606;28;20053;-58
2021/08/16 03:24:44;;;;;;;9.93;5.78;;;25.20;48.50;;;;;;4217073;28;20104;-58
2021/08/16 03:26:46;;;;;;;10.25;4.95;;;25.20;48.60;;;;;;4217082;28;20049;-59
2021/08/16 03:28:48;;;;;;;9.07;5.05;;;25.10;48.60;;;;;;4216931;28;20099;-58
2021/08/16 03:30:50;;;;;;;7.63;5.45;;;25.20;48.60;;;;;;4216807;28;20044;-58
2021/08/16 03:32:52;;;;;;;6.93;5.13;;;25.10;48.60;;;;;;4216991;28;20045;-59
2021/08/16 03:34:54;;;;;;;8.73;6.00;;;25.10;48.60;;;;;;4216856;28;20055;-59
2021/08/16 03:36:57;;;;;;;6.90;5.15;;;25.10;48.70;;;;;;4216747;28;20044;-58
2021/08/16 03:38:59;;;;;;;13.40;6.22;;;25.10;48.80;;;;;;4216838;28;20059;-55
2021/08/16 03:41:01;;;;;;;9.65;5.72;;;25.10;48.80;;;;;;4216784;28;20040;-56
2021/08/16 03:43:03;;;;;;;13.63;5.78;;;25.10;48.80;;;;;;4216634;28;20045;-55
2021/08/16 03:45:14;;;;;;;7.85;5.30;;;25.10;48.90;;;;;;4216695;28;20048;-55
2021/08/16 03:47:16;;;;;;;8.80;5.65;;;25.10;49.00;;;;;;4216733;28;20049;-55
2021/08/16 03:49:18;;;;;;;9.63;6.03;;;25.10;49.10;;;;;;4216501;28;20108;-56
2021/08/16 03:51:21;;;;;;;10.43;5.55;;;25.10;49.10;;;;;;4216489;28;20090;-53
2021/08/16 03:53:23;;;;;;;12.05;6.22;;;25.10;49.10;;;;;;4216599;28;20075;-55
2021/08/16 03:55:25;;;;;;;10.40;5.82;;;25.10;49.20;;;;;;4216428;28;20059;-55
2021/08/16 03:57:27;;;;;;;14.85;6.10;;;25.10;49.20;;;;;;4216527;28;20040;-55
2021/08/16 03:59:29;;;;;;;13.98;6.03;;;25.10;49.30;;;;;;4216109;28;20048;-56
2021/08/16 04:01:31;;;;;;;19.15;6.13;;;25.20;49.30;;;;;;4216551;28;20070;-56
2021/08/16 04:03:33;;;;;;;15.70;6.28;;;25.10;49.30;;;;;;4216368;28;20079;-54
2021/08/16 04:05:37;;;;;;;13.68;6.10;;;25.10;49.40;;;;;;4216328;28;20044;-56
2021/08/16 04:07:43;;;;;;;16.92;6.78;;;25.10;49.50;;;;;;4216359;28;20139;-56
2021/08/16 04:09:46;;;;;;;17.23;6.70;;;25.10;49.60;;;;;;4216239;28;20058;-55
2021/08/16 04:11:48;;;;;;;16.80;6.38;;;25.20;49.60;;;;;;4216226;28;20049;-55
2021/08/16 04:13:50;;;;;;;24.92;7.15;;;25.10;49.60;;;;;;4216083;28;20496;-55
2021/08/16 04:15:51;;;;;;;25.80;7.03;;;25.10;49.70;;;;;;4216122;28;20051;-53
2021/08/16 04:17:54;;;;;;;25.35;6.97;;;25.10;49.70;;;;;;4216117;28;20053;-53
2021/08/16 04:19:56;;;;;;;30.27;7.80;;;25.10;49.80;;;;;;4215999;28;20072;-54
2021/08/16 04:21:58;;;;;;;32.58;8.05;;;25.10;49.80;;;;;;4216027;28;20048;-55
2021/08/16 04:24:00;;;;;;;35.90;7.63;;;25.10;49.80;;;;;;4216034;28;20048;-55
2021/08/16 04:26:03;;;;;;;44.50;10.45;;;25.20;49.80;;;;;;4216087;28;20056;-56
2021/08/16 04:28:05;;;;;;;54.53;11.00;;;25.10;49.90;;;;;;4216294;28;20044;-55
2021/08/16 04:30:08;;;;;;;54.08;11.13;;;25.20;50.00;;;;;;4216071;28;20044;-57
2021/08/16 04:32:10;;;;;;;64.65;10.95;;;25.20;50.10;;;;;;4198523;28;20077;-56
2021/08/16 04:34:12;;;;;;;81.50;12.15;;;25.10;50.20;;;;;;4216083;28;20059;-57
2021/08/16 04:36:14;;;;;;;73.72;12.07;;;25.10;50.30;;;;;;4216001;28;20094;-54
2021/08/16 04:38:19;;;;;;;77.78;12.45;;;25.10;50.50;;;;;;4216059;28;20040;-52
2021/08/16 04:40:21;;;;;;;51.42;13.77;;;25.20;50.50;;;;;;4216031;28;20045;-54
2021/08/16 04:42:23;;;;;;;46.58;10.93;;;25.10;50.50;;;;;;4215945;28;20083;-53
2021/08/16 04:44:25;;;;;;;33.50;9.20;;;25.20;50.50;;;;;;4215954;28;20059;-53
2021/08/16 04:46:27;;;;;;;33.90;8.52;;;25.20;50.50;;;;;;4215968;28;20049;-51
2021/08/16 04:48:29;;;;;;;24.17;7.13;;;25.20;50.50;;;;;;4215771;28;20079;-51
2021/08/16 04:50:31;;;;;;;17.53;6.80;;;25.20;50.60;;;;;;4215863;28;20048;-54
2021/08/16 04:52:33;;;;;;;21.70;7.40;;;25.20;50.50;;;;;;4215912;28;20106;-56
2021/08/16 04:54:35;;;;;;;15.95;7.43;;;25.20;50.60;;;;;;4198332;28;20060;-55
2021/08/16 04:56:38;;;;;;;17.13;6.95;;;25.20;50.70;;;;;;4215762;28;20083;-55
2021/08/16 04:58:40;;;;;;;30.30;7.60;;;25.20;50.70;;;;;;4215741;28;20044;-55
2021/08/16 05:00:42;;;;;;;19.95;7.57;;;25.20;50.80;;;;;;4215605;28;20052;-56
2021/08/16 05:02:44;;;;;;;13.98;6.60;;;25.20;50.90;;;;;;4215826;28;20055;-54
2021/08/16 05:04:49;;;;;;;12.75;6.47;;;25.20;51.00;;;;;;4215795;28;20076;-56
2021/08/16 05:06:51;;;;;;;14.30;7.65;;;25.10;51.10;;;;;;4215816;28;20044;-54
2021/08/16 05:08:53;;;;;;;15.52;6.72;;;25.10;51.10;;;;;;4215666;28;20054;-55
2021/08/16 05:10:55;;;;;;;18.55;6.13;;;25.20;51.10;;;;;;4215729;28;20049;-51
2021/08/16 05:13:00;;;;;;;16.70;7.45;;;25.20;51.10;;;;;;4215716;28;20044;-53
2021/08/16 05:15:02;;;;;;;13.23;7.80;;;25.20;51.10;;;;;;4215816;28;20041;-53
2021/08/16 05:17:05;;;;;;;14.80;8.70;;;25.20;51.20;;;;;;4215677;28;20055;-53
2021/08/16 05:19:08;;;;;;;15.60;8.13;;;25.20;51.10;;;;;;4215582;28;20044;-53
2021/08/16 05:21:10;;;;;;;14.32;7.88;;;25.20;51.10;;;;;;4215578;28;20078;-53
2021/08/16 05:23:12;;;;;;;13.60;6.80;;;25.30;51.30;;;;;;4215406;28;20044;-52
2021/08/16 05:25:16;;;;;;;9.32;5.57;;;25.20;51.30;;;;;;4215527;28;20056;-51
2021/08/16 05:27:18;;;;;;;15.07;6.38;;;25.20;51.50;;;;;;4215525;28;20045;-53
2021/08/16 05:29:20;;;;;;;10.32;5.55;;;25.20;51.30;;;;;;4215468;28;20047;-52
2021/08/16 05:31:22;;;;;;;10.95;6.18;;;25.30;51.30;;;;;;4215433;28;20045;-52
2021/08/16 05:33:24;;;;;;;9.63;5.57;;;25.30;51.30;;;;;;4215603;28;20049;-54
2021/08/16 05:35:26;;;;;;;13.38;5.45;;;25.30;51.30;;;;;;4215454;28;20041;-53
2021/08/16 05:37:28;;;;;;;14.45;6.43;;;25.30;51.30;;;;;;4217735;28;20045;-54
2021/08/16 05:39:30;;;;;;;10.88;6.20;;;25.30;51.30;;;;;;4218583;28;20538;-53
2021/08/16 05:41:32;;;;;;;14.52;6.45;;;25.40;51.50;;;;;;4218602;28;20074;-53
2021/08/16 05:43:34;;;;;;;20.98;7.10;;;25.30;51.70;;;;;;4218360;28;20056;-52
2021/08/16 05:45:36;;;;;;;24.98;8.18;;;25.30;51.90;;;;;;4200931;28;20044;-49
2021/08/16 05:47:38;;;;;;;33.22;8.02;;;25.30;52.00;;;;;;4218326;28;20058;-50
2021/08/16 05:49:41;;;;;;;25.00;8.10;;;25.30;52.20;;;;;;4218430;28;20049;-51
2021/08/16 05:51:42;;;;;;;21.48;7.22;;;25.30;52.00;;;;;;4218307;28;20058;-52
2021/08/16 05:53:44;;;;;;;22.10;7.45;;;25.40;51.90;;;;;;4218402;28;20052;-50
2021/08/16 05:55:46;;;;;;;17.63;6.68;;;25.40;51.80;;;;;;4218419;28;20535;-52
2021/08/16 05:57:48;;;;;;;19.08;6.55;;;25.40;51.90;;;;;;4218191;28;20048;-51
2021/08/16 05:59:51;;;;;;;14.70;6.65;;;25.40;51.80;;;;;;4218095;28;20049;-52
2021/08/16 06:01:53;;;;;;;19.00;6.03;;;25.40;51.80;;;;;;4218289;28;20052;-51
2021/08/16 06:03:55;;;;;;;19.25;7.00;;;25.40;51.70;;;;;;4218161;28;20102;-50
2021/08/16 06:05:57;;;;;;;13.73;6.07;;;25.50;51.80;;;;;;4218019;28;20052;-53
2021/08/16 06:08:00;;;;;;;15.65;7.35;;;25.50;51.90;;;;;;4218327;28;20048;-50
2021/08/16 06:10:06;;;;;;;13.98;6.07;;;25.40;51.60;;;;;;4218233;28;20048;-53
2021/08/16 06:12:08;;;;;;;16.88;6.45;;;25.50;51.60;;;;;;4218126;28;20136;-49
2021/08/16 06:14:10;;;;;;;21.33;6.85;;;25.50;51.40;;;;;;4200777;28;20051;-52
2021/08/16 06:16:12;;;;;;;10.45;5.90;;;25.60;51.50;;;;;;4217973;28;20047;-51
2021/08/16 06:18:15;;;;;;;21.48;6.65;;;25.60;51.60;;;;;;4218080;28;20067;-52
2021/08/16 06:20:17;;;;;;;17.95;6.55;;;25.60;51.70;;;;;;4218012;28;20045;-53
2021/08/16 06:22:19;;;;;;;22.50;7.80;;;25.60;52.50;;;;;;4218046;28;20520;-50
2021/08/16 06:24:21;;;;;;;13.05;6.15;;;25.60;52.30;;;;;;4217956;28;20048;-50
2021/08/16 06:26:23;;;;;;;11.05;6.25;;;25.60;51.90;;;;;;4217894;28;20055;-53
2021/08/16 06:28:25;;;;;;;13.10;5.82;;;25.60;51.60;;;;;;4218046;28;20053;-51
2021/08/16 06:30:27;;;;;;;9.57;5.60;;;25.60;51.80;;;;;;4200503;28;20128;-52
2021/08/16 06:32:32;;;;;;;17.23;5.45;;;25.70;52.40;;;;;;4217800;28;20052;-53
2021/08/16 06:34:39;;;;;;;10.50;5.78;;;25.70;53.30;;;;;;4217831;28;20045;-51
2021/08/16 06:36:43;;;;;;;12.60;5.95;;;25.70;53.20;;;;;;4217793;28;20072;-51
2021/08/16 06:38:47;;;;;;;9.52;5.50;;;25.70;51.90;;;;;;4183912;28;20053;-53
2021/08/16 06:40:51;;;;;;;10.90;5.93;;;25.70;52.80;;;;;;4217713;28;20045;-51
2021/08/16 06:42:53;;;;;;;10.35;5.47;;;25.70;52.60;;;;;;4217618;28;20044;-51
2021/08/16 06:44:55;;;;;;;13.57;6.30;;;25.80;52.70;;;;;;4217655;28;20052;-53
2021/08/16 06:46:58;;;;;;;11.07;5.35;;;25.80;52.70;;;;;;4217584;28;20044;-50
2021/08/16 06:49:00;;;;;;;11.75;6.03;;;25.80;52.80;;;;;;4216341;28;20108;-48
2021/08/16 06:51:02;;;;;;;9.88;5.70;;;25.80;53.10;;;;;;4200158;28;20103;-47
2021/08/16 06:53:04;;;;;;;7.88;5.07;;;25.70;52.80;;;;;;4217459;28;20053;-51
2021/08/16 06:55:06;;;;;;;11.82;5.55;;;25.70;52.60;;;;;;4217558;28;20086;-50
2021/08/16 06:57:08;;;;;;;13.40;5.85;;;25.80;52.90;;;;;;4217343;28;20041;-50
2021/08/16 06:59:10;;;;;;;8.15;6.15;;;25.80;52.20;;;;;;4217372;28;20117;-50
2021/08/16 07:01:20;;;;;;;10.77;5.95;;;25.80;51.50;;;;;;4217235;28;20048;-49
2021/08/16 07:03:22;;;;;;;9.48;5.57;;;25.80;52.10;;;;;;4217293;28;20046;-50
2021/08/16 07:05:25;;;;;;;10.15;6.20;;;25.80;51.90;;;;;;4217336;28;20049;-50
2021/08/16 07:07:27;;;;;;;11.65;6.35;;;25.90;51.40;;;;;;4217350;28;20045;-49
2021/08/16 07:09:29;;;;;;;9.75;5.63;;;25.80;51.40;;;;;;4217230;28;20079;-49
2021/08/16 07:11:31;;;;;;;14.52;5.00;;;25.80;50.90;;;;;;4217089;28;20044;-56
2021/08/16 07:13:33;;;;;;;7.30;4.60;;;25.90;50.60;;;;;;4216875;28;20104;-55
2021/08/16 07:15:35;;;;;;;12.57;5.55;;;25.90;51.00;;;;;;4216570;28;20062;-54
2021/08/16 07:17:37;;;;;;;15.23;5.88;;;25.90;50.80;;;;;;4213999;28;20044;-57
2021/08/16 07:19:39;;;;;;;12.18;5.65;;;25.90;50.50;;;;;;4214120;28;20044;-57
2021/08/16 07:21:43;;;;;;;9.77;4.90;;;25.90;50.70;;;;;;4216437;28;20104;-57
2021/08/16 07:23:45;;;;;;;7.40;4.80;;;25.90;50.70;;;;;;4216872;28;20123;-56
2021/08/16 07:25:47;;;;;;;16.13;4.97;;;25.90;50.70;;;;;;4206958;28;20055;-56
2021/08/16 07:27:49;;;;;;;15.07;5.22;;;25.90;50.80;;;;;;4205051;28;20059;-57
2021/08/16 07:29:52;;;;;;;5.70;4.70;;;25.90;50.80;;;;;;4216505;28;20071;-57
2021/08/16 07:31:54;;;;;;;8.57;4.80;;;25.90;50.90;;;;;;4204242;28;20055;-57
2021/08/16 07:33:56;;;;;;;12.05;5.53;;;25.90;51.00;;;;;;4210955;28;20066;-58
2021/08/16 07:35:58;;;;;;;11.80;4.97;;;25.90;51.00;;;;;;4215266;28;20048;-57
2021/08/16 07:38:00;;;;;;;6.30;4.75;;;25.90;50.90;;;;;;4216346;28;20045;-57
2021/08/16 07:40:03;;;;;;;13.38;6.50;;;25.90;51.00;;;;;;4214936;28;20048;-57
2021/08/16 07:42:05;;;;;;;9.70;6.07;;;25.90;51.10;;;;;;4214816;28;20112;-57
2021/08/16 07:44:07;;;;;;;10.25;6.28;;;25.90;51.00;;;;;;4206179;28;20067;-57
2021/08/16 07:46:11;;;;;;;10.07;6.00;;;25.80;51.00;;;;;;4216260;28;20044;-57
2021/08/16 07:48:13;;;;;;;9.13;4.90;;;25.90;51.10;;;;;;4216140;28;20066;-57
2021/08/16 07:50:15;;;;;;;8.52;5.07;;;25.90;51.00;;;;;;4213960;28;20063;-59
2021/08/16 07:52:17;;;;;;;11.73;5.60;;;25.90;51.10;;;;;;4214380;28;20049;-59
2021/08/16 07:54:19;;;;;;;8.82;5.85;;;25.90;51.00;;;;;;4213298;28;20040;-59
2021/08/16 07:56:21;;;;;;;11.73;5.43;;;25.90;50.90;;;;;;4213215;28;20040;-59
2021/08/16 07:58:23;;;;;;;15.95;12.80;;;25.90;51.00;;;;;;4214313;28;20044;-59
2021/08/16 08:00:25;;;;;;;8.13;5.68;;;25.90;50.90;;;;;;4212749;28;20049;-59
2021/08/16 08:02:47;;;;;;;7.65;4.65;;;25.90;51.20;;;;;;4214796;28;20540;-61
2021/08/16 08:04:49;;;;;;;12.38;9.65;;;25.90;50.60;;;;;;4213163;28;20052;-59
2021/08/16 08:06:51;;;;;;;9.15;5.10;;;25.90;50.80;;;;;;4201018;28;20045;-58
2021/08/16 08:08:53;;;;;;;7.60;5.60;;;25.90;50.80;;;;;;4212697;28;20104;-58
2021/08/16 08:10:55;;;;;;;9.07;5.40;;;25.90;50.90;;;;;;4210972;28;20110;-59
2021/08/16 08:12:57;;;;;;;9.15;5.50;;;25.90;50.30;;;;;;4214958;28;20044;-61
2021/08/16 08:14:59;;;;;;;8.85;4.75;;;25.90;50.30;;;;;;4215929;28;20044;-61
2021/08/16 08:17:02;;;;;;;7.28;5.15;;;25.90;50.10;;;;;;4213912;28;20041;-63
2021/08/16 08:19:03;;;;;;;9.52;5.10;;;26.00;49.80;;;;;;4213504;28;20067;-62
2021/08/16 08:21:05;;;;;;;8.10;5.07;;;26.00;49.90;;;;;;4214739;28;20465;-58
2021/08/16 08:23:08;;;;;;;10.80;6.07;;;26.00;50.00;;;;;;4200673;28;20045;-58
2021/08/16 08:25:12;;;;;;;8.50;5.05;;;26.00;50.00;;;;;;4210293;28;20048;-58
2021/08/16 08:27:14;;;;;;;10.70;6.03;;;26.00;50.00;;;;;;4214189;28;20052;-58
2021/08/16 08:29:16;;;;;;;10.23;5.05;;;26.00;50.60;;;;;;4214944;28;20048;-58
2021/08/16 08:31:18;;;;;;;9.02;5.60;;;25.90;50.30;;;;;;4196060;28;20045;-58
2021/08/16 08:33:21;;;;;;;10.32;5.15;;;25.90;50.10;;;;;;4208524;28;20051;-58
2021/08/16 08:35:24;;;;;;;10.20;5.00;;;26.00;50.40;;;;;;4213090;28;20040;-58
2021/08/16 08:37:25;;;;;;;14.40;5.30;;;25.90;50.60;;;;;;4214264;28;20056;-62
2021/08/16 08:39:27;;;;;;;7.22;4.63;;;26.00;49.70;;;;;;4212626;28;20040;-62
2021/08/16 08:41:31;;;;;;;8.35;4.90;;;26.00;49.00;;;;;;4212500;28;20049;-62
2021/08/16 08:43:35;;;;;;;15.10;5.22;;;26.10;48.50;;;;;;4194846;28;20049;-63
2021/08/16 08:45:38;;;;;;;9.88;5.32;;;26.20;48.50;;;;;;4212174;28;20049;-62
2021/08/16 08:47:41;;;;;;;12.00;5.38;;;26.20;48.60;;;;;;4212561;28;20481;-63
2021/08/16 08:49:43;;;;;;;7.30;4.68;;;26.20;48.60;;;;;;4214576;28;20052;-61
2021/08/16 08:51:45;;;;;;;7.88;4.57;;;26.20;48.60;;;;;;4218987;28;20052;-65
2021/08/16 08:53:47;;;;;;;9.70;5.30;;;26.20;48.80;;;;;;4213231;28;20040;-64
2021/08/16 08:55:49;;;;;;;10.77;5.43;;;26.10;48.70;;;;;;4193658;28;20069;-64
2021/08/16 08:57:52;;;;;;;9.18;5.22;;;26.20;48.80;;;;;;4200825;28;20434;-58
2021/08/16 08:59:55;;;;;;;11.27;5.47;;;26.10;49.20;;;;;;4214153;28;20055;-59
2021/08/16 09:01:59;;;;;;;13.23;5.78;;;26.10;49.20;;;;;;4213887;28;20075;-59
2021/08/16 09:04:01;;;;;;;;;;;26.10;48.80;;;;;;4215523;28;20076;-59
2021/08/16 09:06:03;;;;;;;11.57;5.28;;;26.10;49.00;;;;;;4215202;28;19920;-60
2021/08/16 09:08:05;;;;;;;16.98;5.20;;;26.20;49.00;;;;;;4213129;28;20048;-58
2021/08/16 09:10:13;;;;;;;10.52;5.43;;;26.20;49.20;;;;;;4211374;28;20041;-62
2021/08/16 09:12:27;;;;;;;7.15;4.93;;;26.20;48.90;;;;;;4219467;28;20579;-62
2021/08/16 09:14:29;;;;;;;7.18;4.90;;;26.20;48.80;;;;;;4224010;28;20045;-62
2021/08/16 09:16:34;;;;;;;10.52;5.10;;;26.20;48.90;;;;;;4216473;28;20085;-62
2021/08/16 09:18:37;;;;;;;10.00;6.00;;;26.20;48.90;;;;;;4212092;28;20045;-62
2021/08/16 09:20:39;;;;;;;9.68;5.60;;;26.20;48.70;;;;;;4203709;28;20045;-62
2021/08/16 09:22:41;;;;;;;7.28;5.15;;;26.20;48.70;;;;;;4217741;28;20062;-58
2021/08/16 09:24:44;;;;;;;9.30;4.90;;;26.20;48.60;;;;;;4214153;28;20140;-58
2021/08/16 09:26:46;;;;;;;10.15;5.50;;;26.20;48.80;;;;;;4216976;28;20108;-57
2021/08/16 09:28:55;;;;;;;12.20;5.60;;;26.20;49.20;;;;;;4218412;28;20074;-57
2021/08/16 09:31:13;;;;;;;8.45;4.50;;;26.20;49.20;;;;;;4218650;28;20074;-57
2021/08/16 09:33:18;;;;;;;9.30;5.05;;;26.20;49.40;;;;;;4218612;28;20052;-56
2021/08/16 09:35:20;;;;;;;10.18;5.15;;;26.10;49.70;;;;;;4217082;28;20040;-60
2021/08/16 09:37:25;;;;;;;8.27;5.57;;;26.10;49.70;;;;;;4207077;28;20044;-60
2021/08/16 09:39:31;;;;;;;8.88;5.15;;;26.10;49.40;;;;;;4220526;28;20099;-59
2021/08/16 09:41:33;;;;;;;6.97;5.25;;;26.20;49.60;;;;;;4211349;28;20054;-61
2021/08/16 09:43:35;;;;;;;6.80;5.47;;;26.20;49.50;;;;;;4200760;28;20112;-64
2021/08/16 09:45:38;;;;;;;20.35;6.13;;;26.30;49.40;;;;;;4229564;28;20052;-65
2021/08/16 09:47:42;;;;;;;13.98;5.43;;;26.30;49.50;;;;;;4215603;28;20063;-61
2021/08/16 09:49:56;;;;;;;9.25;5.47;;;26.30;49.60;;;;;;4215639;28;20052;-66
2021/08/16 09:52:05;;;;;;;8.80;5.15;;;26.30;49.40;;;;;;4214060;28;20107;-66
2021/08/16 09:54:07;;;;;;;11.20;5.78;;;26.40;49.20;;;;;;4200917;28;20837;-66
2021/08/16 09:56:10;;;;;;;9.93;5.05;;;26.40;49.10;;;;;;4196026;28;20082;-65
2021/08/16 09:58:14;;;;;;;6.00;4.65;;;26.40;49.10;;;;;;4209965;28;20049;-66
2021/08/16 10:00:16;;;;;;;8.32;5.00;;;26.40;49.10;;;;;;4216675;28;20053;-64
2021/08/16 10:02:18;;;;;;;8.25;5.20;;;26.40;49.20;;;;;;4215805;28;20041;-64
2021/08/16 10:04:20;;;;;;;6.32;4.60;;;26.40;49.10;;;;;;4215319;28;20068;-65
2021/08/16 10:06:25;;;;;;;14.13;5.07;;;26.40;49.20;;;;;;4215571;28;20041;-66
2021/08/16 10:08:28;;;;;;;8.85;5.22;;;26.40;49.20;;;;;;4216748;28;20123;-66
2021/08/16 10:10:30;;;;;;;8.68;4.95;;;26.40;49.00;;;;;;4184007;28;20052;-66
2021/08/16 10:12:32;;;;;;;7.38;5.03;;;26.40;48.90;;;;;;4209229;28;20048;-66
2021/08/16 10:14:35;;;;;;;10.00;5.25;;;26.40;49.10;;;;;;4197595;28;20049;-65
2021/08/16 10:16:54;;;;;;;7.57;5.13;;;26.40;49.10;;;;;;4200641;28;20045;-65
2021/08/16 10:19:05;;;;;;;8.82;4.97;;;26.40;49.10;;;;;;4215280;28;20055;-64
2021/08/16 10:21:08;;;;;;;8.40;4.82;;;26.40;49.00;;;;;;4215336;28;20048;-65
2021/08/16 10:23:20;;;;;;;9.00;4.65;;;26.40;48.80;;;;;;4214939;28;20049;-65
2021/08/16 10:25:23;;;;;;;7.70;5.15;;;26.40;48.80;;;;;;4200294;28;20049;-64
2021/08/16 10:27:31;;;;;;;7.05;5.05;;;26.40;48.80;;;;;;4215387;28;20075;-64
2021/08/16 10:29:34;;;;;;;6.53;4.63;;;26.40;48.80;;;;;;4213638;28;20083;-64
2021/08/16 10:31:41;;;;;;;10.05;5.75;;;26.50;48.70;;;;;;4214258;28;20112;-64
2021/08/16 10:33:44;;;;;;;7.80;4.97;;;26.50;48.50;;;;;;4216357;28;20072;-64